createdAt,value
2019-03-30T00:00:15.727Z,63.96
2019-03-30T00:01:15.800Z,63.86
2019-03-30T00:02:15.759Z,63.98
2019-03-30T00:03:15.767Z,63.87
2019-03-30T00:04:15.720Z,63.66
2019-03-30T00:05:15.746Z,63.8
2019-03-30T00:06:15.719Z,64.05
2019-03-30T00:07:15.746Z,64.05
2019-03-30T00:08:15.706Z,64.48
2019-03-30T00:09:15.823Z,64.54
2019-03-30T00:10:15.699Z,64.49
2019-03-30T00:11:15.775Z,64.41
2019-03-30T00:12:15.694Z,64.8
2019-03-30T00:13:15.698Z,64.73
2019-03-30T00:14:15.791Z,64.45
2019-03-30T00:15:15.724Z,64.72
2019-03-30T00:16:15.721Z,64.4
2019-03-30T00:17:15.708Z,64.28
2019-03-30T00:18:15.772Z,64.55
2019-03-30T00:19:15.699Z,64.7
2019-03-30T00:20:15.723Z,64.6
2019-03-30T00:21:15.692Z,64.58
2019-03-30T00:22:15.761Z,64.76
2019-03-30T00:23:15.710Z,65.28
2019-03-30T00:24:15.752Z,65.51
2019-03-30T00:25:15.752Z,65.37
2019-03-30T00:26:15.782Z,65.51
2019-03-30T00:27:15.666Z,65.49
2019-03-30T00:28:15.673Z,65.48
2019-03-30T00:29:15.960Z,65.73
2019-03-30T00:30:19.555Z,65.57
2019-03-30T00:31:15.717Z,65.93
2019-03-30T00:32:15.759Z,65.76
2019-03-30T00:33:15.666Z,65.63
2019-03-30T00:34:15.718Z,65.53
2019-03-30T00:35:15.774Z,65.54
2019-03-30T00:36:15.678Z,65.5
2019-03-30T00:37:16.567Z,65.74
2019-03-30T00:38:15.660Z,65.59
2019-03-30T00:39:15.674Z,65.82
2019-03-30T00:40:15.737Z,65.65
2019-03-30T00:41:15.741Z,65.67
2019-03-30T00:42:15.738Z,65.84
2019-03-30T00:43:15.724Z,65.59
2019-03-30T00:44:15.659Z,65.49
2019-03-30T00:45:15.705Z,65.44
2019-03-30T00:46:15.720Z,65.4
2019-03-30T00:47:15.671Z,65.56
2019-03-30T00:48:15.685Z,66.04
2019-03-30T00:49:15.672Z,66.17
2019-03-30T00:50:15.851Z,65.6
2019-03-30T00:51:15.640Z,65.67
2019-03-30T00:52:15.672Z,65.48
2019-03-30T00:53:15.722Z,66.17
2019-03-30T00:54:15.661Z,65.87
2019-03-30T00:55:15.739Z,66.21
2019-03-30T00:56:15.713Z,65.72
2019-03-30T00:57:15.626Z,65.8
2019-03-30T00:58:15.655Z,65.74
2019-03-30T00:59:15.755Z,65.62
2019-03-30T01:00:15.695Z,65.18
2019-03-30T01:01:15.796Z,64.96
2019-03-30T01:02:15.655Z,65.22
2019-03-30T01:03:15.696Z,65.64
2019-03-30T01:04:15.637Z,65.7
2019-03-30T01:05:15.709Z,65.58
2019-03-30T01:06:15.617Z,65.51
2019-03-30T01:07:15.624Z,65.44
2019-03-30T01:08:15.686Z,65.28
2019-03-30T01:09:15.619Z,64.9
2019-03-30T01:10:15.650Z,65.81
2019-03-30T01:11:15.672Z,65.57
2019-03-30T01:12:15.706Z,65.64
2019-03-30T01:13:15.675Z,66.12
2019-03-30T01:14:15.621Z,65.72
2019-03-30T01:15:15.606Z,65.64
2019-03-30T01:16:15.733Z,65.57
2019-03-30T01:17:15.613Z,65.62
2019-03-30T01:18:15.635Z,65.87
2019-03-30T01:19:15.624Z,65.79
2019-03-30T01:20:15.643Z,65.64
2019-03-30T01:21:15.678Z,65.93
2019-03-30T01:22:15.769Z,65.66
2019-03-30T01:23:15.635Z,65.71
2019-03-30T01:24:15.617Z,65.18
2019-03-30T01:25:15.793Z,65.53
2019-03-30T01:26:15.621Z,65.54
2019-03-30T01:27:15.650Z,65.64
2019-03-30T01:28:15.614Z,65.5
2019-03-30T01:29:15.591Z,65.82
2019-03-30T01:30:23.884Z,65.67
2019-03-30T01:31:15.623Z,65.84
2019-03-30T01:32:15.587Z,65.76
2019-03-30T01:33:15.609Z,65.82
2019-03-30T01:34:15.833Z,66.26
2019-03-30T01:35:16.000Z,66.19
2019-03-30T01:36:15.794Z,66.31
2019-03-30T01:37:15.775Z,66.02
2019-03-30T01:38:15.631Z,65.97
2019-03-30T01:39:16.383Z,66
2019-03-30T01:40:15.651Z,66.44
2019-03-30T01:41:15.625Z,66.34
2019-03-30T01:42:15.633Z,66.24
2019-03-30T01:43:15.655Z,66.05
2019-03-30T01:44:15.647Z,66.32
2019-03-30T01:45:15.601Z,65.82
2019-03-30T01:46:15.598Z,66.31
2019-03-30T01:47:15.599Z,66.38
2019-03-30T01:48:15.556Z,66.17
2019-03-30T01:49:15.590Z,66.39
2019-03-30T01:50:18.575Z,66.47
2019-03-30T01:51:15.582Z,66.33
2019-03-30T01:52:15.594Z,66.43
2019-03-30T01:53:15.616Z,66.36
2019-03-30T01:54:15.582Z,66.29
2019-03-30T01:55:15.588Z,66.58
2019-03-30T01:56:15.710Z,66.42
2019-03-30T01:57:15.603Z,66.2
2019-03-30T01:58:15.620Z,66.35
2019-03-30T01:59:16.631Z,66.27
2019-03-30T02:00:15.543Z,66.11
2019-03-30T02:01:15.938Z,66.44
2019-03-30T02:02:15.576Z,66.69
2019-03-30T02:03:15.538Z,66.96
2019-03-30T02:04:15.584Z,66.73
2019-03-30T02:05:15.539Z,67.03
2019-03-30T02:06:15.547Z,66.71
2019-03-30T02:07:15.580Z,66.51
2019-03-30T02:08:15.623Z,66.84
2019-03-30T02:09:15.596Z,67.13
2019-03-30T02:10:15.632Z,67.42
2019-03-30T02:11:15.593Z,67.48
2019-03-30T02:12:15.511Z,67.41
2019-03-30T02:13:15.587Z,67.32
2019-03-30T02:14:15.585Z,67.12
2019-03-30T02:15:15.537Z,67.36
2019-03-30T02:16:15.515Z,67.03
2019-03-30T02:17:15.659Z,66.6
2019-03-30T02:18:15.530Z,66.87
2019-03-30T02:19:15.535Z,67.08
2019-03-30T02:20:15.535Z,67.74
2019-03-30T02:21:15.534Z,67.41
2019-03-30T02:22:15.575Z,67.6
2019-03-30T02:23:15.626Z,67.88
2019-03-30T02:24:15.501Z,67.85
2019-03-30T02:25:15.532Z,67.57
2019-03-30T02:26:15.558Z,67.56
2019-03-30T02:27:15.533Z,67.52
2019-03-30T02:28:15.503Z,67.88
2019-03-30T02:29:15.554Z,67.48
2019-03-30T02:30:15.498Z,67.37
2019-03-30T02:31:15.561Z,67.48
2019-03-30T02:32:15.522Z,67.69
2019-03-30T02:33:15.550Z,67.75
2019-03-30T02:34:15.498Z,67.63
2019-03-30T02:35:15.543Z,67.31
2019-03-30T02:36:15.492Z,67.59
2019-03-30T02:37:15.511Z,68.22
2019-03-30T02:38:15.519Z,68.01
2019-03-30T02:39:16.843Z,68.05
2019-03-30T02:40:15.528Z,68.59
2019-03-30T02:41:15.572Z,68.26
2019-03-30T02:42:15.506Z,68.15
2019-03-30T02:43:15.487Z,68.49
2019-03-30T02:44:15.522Z,68.59
2019-03-30T02:45:15.570Z,68.98
2019-03-30T02:46:15.560Z,68.92
2019-03-30T02:47:15.485Z,68.75
2019-03-30T02:48:15.496Z,68.64
2019-03-30T02:49:15.533Z,68.71
2019-03-30T02:50:15.518Z,68.83
2019-03-30T02:51:15.540Z,68.89
2019-03-30T02:52:15.493Z,69.04
2019-03-30T02:53:15.506Z,68.97
2019-03-30T02:54:15.467Z,68.9
2019-03-30T02:55:15.498Z,68.8
2019-03-30T02:56:15.484Z,69.44
2019-03-30T02:57:15.472Z,69.3
2019-03-30T02:58:15.511Z,69.73
2019-03-30T02:59:15.578Z,70.04
2019-03-30T03:00:15.537Z,69.79
2019-03-30T03:01:15.531Z,69.58
2019-03-30T03:02:15.526Z,70.09
2019-03-30T03:03:15.559Z,69.61
2019-03-30T03:04:15.460Z,69.74
2019-03-30T03:05:15.490Z,70.08
2019-03-30T03:06:15.499Z,69.72
2019-03-30T03:07:15.510Z,70.45
2019-03-30T03:08:15.471Z,70
2019-03-30T03:09:15.547Z,70.09
2019-03-30T03:10:15.494Z,70.35
2019-03-30T03:11:15.588Z,69.67
2019-03-30T03:12:15.515Z,69.47
2019-03-30T03:13:15.443Z,70.03
2019-03-30T03:14:15.465Z,69.68
2019-03-30T03:15:15.456Z,69.72
2019-03-30T03:16:15.455Z,70.17
2019-03-30T03:17:15.475Z,70.23
2019-03-30T03:18:15.447Z,70.26
2019-03-30T03:19:15.434Z,70.3
2019-03-30T03:20:15.547Z,70.38
2019-03-30T03:21:15.497Z,70.66
2019-03-30T03:22:17.319Z,70.83
2019-03-30T03:23:15.572Z,71.2
2019-03-30T03:24:15.444Z,71.01
2019-03-30T03:25:15.464Z,71.2
2019-03-30T03:26:15.455Z,71.14
2019-03-30T03:27:15.447Z,71.03
2019-03-30T03:28:15.456Z,71.52
2019-03-30T03:29:15.470Z,71.19
2019-03-30T03:30:15.464Z,71.33
2019-03-30T03:31:15.560Z,71.74
2019-03-30T03:32:15.453Z,71.61
2019-03-30T03:33:15.603Z,72.3
2019-03-30T03:34:15.511Z,71.97
2019-03-30T03:35:15.444Z,72.47
2019-03-30T03:36:15.680Z,72.1
2019-03-30T03:37:15.502Z,72.44
2019-03-30T03:38:15.532Z,72.29
2019-03-30T03:39:15.446Z,72.17
2019-03-30T03:40:15.462Z,72.26
2019-03-30T03:41:15.519Z,72.13
2019-03-30T03:42:15.526Z,72.38
2019-03-30T03:43:15.478Z,72.78
2019-03-30T03:44:15.433Z,73.07
2019-03-30T03:45:15.555Z,72.9
2019-03-30T03:46:15.466Z,72.82
2019-03-30T03:47:15.427Z,72.88
2019-03-30T03:48:15.414Z,72.82
2019-03-30T03:49:16.696Z,73.46
2019-03-30T03:50:15.439Z,73.36
2019-03-30T03:51:26.982Z,73.01
2019-03-30T03:52:15.418Z,73.5
2019-03-30T03:53:15.902Z,72.88
2019-03-30T03:54:15.366Z,72.84
2019-03-30T03:55:15.478Z,73.16
2019-03-30T03:56:15.484Z,73.06
2019-03-30T03:57:15.408Z,73.19
2019-03-30T03:58:15.428Z,73.01
2019-03-30T03:59:15.521Z,72.98
2019-03-30T04:00:15.441Z,73.41
2019-03-30T04:01:16.309Z,72.99
2019-03-30T04:02:15.456Z,73.27
2019-03-30T04:03:15.397Z,73.13
2019-03-30T04:04:15.429Z,73.15
2019-03-30T04:05:16.097Z,72.88
2019-03-30T04:06:15.412Z,73.69
2019-03-30T04:07:15.449Z,73.65
2019-03-30T04:08:15.437Z,72.87
2019-03-30T04:09:15.374Z,73.72
2019-03-30T04:10:15.379Z,73.89
2019-03-30T04:11:15.498Z,73.67
2019-03-30T04:12:15.422Z,73.87
2019-03-30T04:13:15.405Z,74.02
2019-03-30T04:14:15.399Z,73.64
2019-03-30T04:15:15.454Z,73.89
2019-03-30T04:16:15.485Z,73.83
2019-03-30T04:17:15.387Z,74.2
2019-03-30T04:18:15.423Z,74.25
2019-03-30T04:19:15.369Z,74.15
2019-03-30T04:20:15.405Z,73.78
2019-03-30T04:21:15.369Z,74.26
2019-03-30T04:22:15.391Z,74.14
2019-03-30T04:23:15.453Z,74.56
2019-03-30T04:24:15.398Z,74.78
2019-03-30T04:25:15.374Z,74.54
2019-03-30T04:26:15.383Z,74.61
2019-03-30T04:27:15.520Z,74.06
2019-03-30T04:28:15.419Z,74.42
2019-03-30T04:29:15.452Z,74.36
2019-03-30T04:30:15.401Z,74.3
2019-03-30T04:31:15.397Z,74.23
2019-03-30T04:32:15.358Z,74.29
2019-03-30T04:33:15.367Z,74.33
2019-03-30T04:34:15.378Z,74.46
2019-03-30T04:35:15.439Z,74.39
2019-03-30T04:36:15.365Z,74.52
2019-03-30T04:37:15.426Z,74.64
2019-03-30T04:38:15.373Z,74.77
2019-03-30T04:39:15.389Z,74.28
2019-03-30T04:40:15.371Z,74.49
2019-03-30T04:41:15.327Z,74.63
2019-03-30T04:42:15.369Z,74.65
2019-03-30T04:43:15.368Z,75.34
2019-03-30T04:44:17.196Z,75.02
2019-03-30T04:45:15.385Z,75.63
2019-03-30T04:46:15.382Z,75.09
2019-03-30T04:47:15.325Z,75.17
2019-03-30T04:48:15.342Z,75.02
2019-03-30T04:49:15.812Z,75.15
2019-03-30T04:50:15.409Z,75.18
2019-03-30T04:51:15.328Z,74.9
2019-03-30T04:52:15.361Z,74.88
2019-03-30T04:53:15.340Z,74.96
2019-03-30T04:54:15.304Z,74.78
2019-03-30T04:55:15.349Z,74.98
2019-03-30T04:56:15.360Z,74.96
2019-03-30T04:57:15.358Z,75.31
2019-03-30T04:58:15.376Z,75.66
2019-03-30T04:59:15.348Z,75.63
2019-03-30T05:00:15.382Z,75.23
2019-03-30T05:01:15.381Z,75.01
2019-03-30T05:02:15.421Z,75.01
2019-03-30T05:03:15.312Z,75.03
2019-03-30T05:04:15.446Z,74.98
2019-03-30T05:05:15.300Z,74.71
2019-03-30T05:06:15.445Z,74.53
2019-03-30T05:07:15.348Z,74.84
2019-03-30T05:08:15.291Z,74.67
2019-03-30T05:09:15.332Z,74.98
2019-03-30T05:10:15.345Z,75.03
2019-03-30T05:11:15.800Z,74.94
2019-03-30T05:12:15.359Z,74.84
2019-03-30T05:13:15.329Z,74.76
2019-03-30T05:14:15.297Z,74.88
2019-03-30T05:15:15.297Z,74.71
2019-03-30T05:16:15.284Z,74.47
2019-03-30T05:17:15.302Z,74.78
2019-03-30T05:18:15.382Z,74.76
2019-03-30T05:19:15.340Z,74.82
2019-03-30T05:20:15.347Z,75
2019-03-30T05:21:15.255Z,75.02
2019-03-30T05:22:17.069Z,75.18
2019-03-30T05:23:15.282Z,74.82
2019-03-30T05:24:15.342Z,74.97
2019-03-30T05:25:15.273Z,75.09
2019-03-30T05:26:15.274Z,75.11
2019-03-30T05:27:15.302Z,75.21
2019-03-30T05:28:15.266Z,75.75
2019-03-30T05:29:15.277Z,75.83
2019-03-30T05:30:15.334Z,75.71
2019-03-30T05:31:15.330Z,75.84
2019-03-30T05:32:15.416Z,75.46
2019-03-30T05:33:15.251Z,75.39
2019-03-30T05:34:15.246Z,76.1
2019-03-30T05:35:15.304Z,75.92
2019-03-30T05:36:15.340Z,76.1
2019-03-30T05:37:15.294Z,76.19
2019-03-30T05:38:15.277Z,76.31
2019-03-30T05:39:15.331Z,76.57
2019-03-30T05:40:15.254Z,76.51
2019-03-30T05:41:15.245Z,76.36
2019-03-30T05:42:15.245Z,76.21
2019-03-30T05:43:15.317Z,76.11
2019-03-30T05:44:15.249Z,76.27
2019-03-30T05:45:16.706Z,76.19
2019-03-30T05:46:15.240Z,76.29
2019-03-30T05:47:15.289Z,76.09
2019-03-30T05:48:15.349Z,76.17
2019-03-30T05:49:15.236Z,75.88
2019-03-30T05:50:15.279Z,75.96
2019-03-30T05:51:15.225Z,75.66
2019-03-30T05:52:27.222Z,75.57
2019-03-30T05:53:15.377Z,75.6
2019-03-30T05:54:15.772Z,75.62
2019-03-30T05:55:15.331Z,75.86
2019-03-30T05:56:15.241Z,75.56
2019-03-30T05:57:15.266Z,76.29
2019-03-30T05:58:15.254Z,76
2019-03-30T05:59:15.235Z,76.02
2019-03-30T06:00:15.258Z,75.84
2019-03-30T06:01:15.257Z,75.53
2019-03-30T06:02:15.264Z,75.73
2019-03-30T06:03:15.230Z,75.83
2019-03-30T06:04:15.283Z,75.78
2019-03-30T06:05:15.285Z,75.72
2019-03-30T06:06:15.260Z,75.67
2019-03-30T06:07:15.224Z,75.57
2019-03-30T06:08:15.247Z,75.44
2019-03-30T06:09:15.245Z,75.58
2019-03-30T06:10:15.205Z,75.77
2019-03-30T06:11:15.225Z,75.63
2019-03-30T06:12:15.206Z,75.86
2019-03-30T06:13:15.213Z,75.83
2019-03-30T06:14:15.372Z,76
2019-03-30T06:15:15.191Z,75.97
2019-03-30T06:16:15.247Z,75.92
2019-03-30T06:17:15.264Z,75.7
2019-03-30T06:18:15.212Z,75.29
2019-03-30T06:19:15.339Z,75.71
2019-03-30T06:20:15.190Z,75.46
2019-03-30T06:21:15.222Z,75.65
2019-03-30T06:22:15.536Z,75.57
2019-03-30T06:23:15.208Z,75.83
2019-03-30T06:24:15.232Z,75.93
2019-03-30T06:25:15.262Z,75.64
2019-03-30T06:26:15.191Z,75.56
2019-03-30T06:27:15.228Z,75.37
2019-03-30T06:28:15.190Z,75.64
2019-03-30T06:29:15.181Z,75.39
2019-03-30T06:30:15.180Z,75.5
2019-03-30T06:31:15.196Z,75.56
2019-03-30T06:32:15.301Z,75.77
2019-03-30T06:33:15.305Z,75.79
2019-03-30T06:34:15.203Z,75.7
2019-03-30T06:35:15.206Z,75.73
2019-03-30T06:36:15.231Z,75.08
2019-03-30T06:37:15.719Z,75.08
2019-03-30T06:38:15.207Z,75.3
2019-03-30T06:39:15.229Z,75.17
2019-03-30T06:40:15.219Z,75.1
2019-03-30T06:41:15.217Z,75.3
2019-03-30T06:42:15.203Z,75.3
2019-03-30T06:43:15.199Z,75.19
2019-03-30T06:44:15.337Z,74.75
2019-03-30T06:45:15.165Z,74.63
2019-03-30T06:46:15.261Z,74.88
2019-03-30T06:47:15.210Z,75
2019-03-30T06:48:15.261Z,74.56
2019-03-30T06:49:15.200Z,75.05
2019-03-30T06:50:15.201Z,74.69
2019-03-30T06:51:15.204Z,74.72
2019-03-30T06:52:15.188Z,74.9
2019-03-30T06:53:17.647Z,74.94
2019-03-30T06:54:15.201Z,74.57
2019-03-30T06:55:15.250Z,74.34
2019-03-30T06:56:15.210Z,74.68
2019-03-30T06:57:15.276Z,74.39
2019-03-30T06:58:15.455Z,74.57
2019-03-30T06:59:15.219Z,74.3
2019-03-30T07:00:15.209Z,74.42
2019-03-30T07:01:15.350Z,74.24
2019-03-30T07:02:15.357Z,74.22
2019-03-30T07:03:15.220Z,74.07
2019-03-30T07:04:15.145Z,74.38
2019-03-30T07:05:15.128Z,74.06
2019-03-30T07:06:15.160Z,73.56
2019-03-30T07:07:15.221Z,73.89
2019-03-30T07:08:15.283Z,73.76
2019-03-30T07:09:15.171Z,73.6
2019-03-30T07:10:15.285Z,73.9
2019-03-30T07:11:21.720Z,73.51
2019-03-30T07:12:15.133Z,73.59
2019-03-30T07:13:15.177Z,73.34
2019-03-30T07:14:15.186Z,73.31
2019-03-30T07:15:15.147Z,73.24
2019-03-30T07:16:15.127Z,73.05
2019-03-30T07:17:15.211Z,72.77
2019-03-30T07:18:15.151Z,72.94
2019-03-30T07:19:15.132Z,72.42
2019-03-30T07:20:15.384Z,72.55
2019-03-30T07:21:15.116Z,72.25
2019-03-30T07:22:15.149Z,72.31
2019-03-30T07:23:15.182Z,72.44
2019-03-30T07:24:15.170Z,71.99
2019-03-30T07:25:15.165Z,72.3
2019-03-30T07:26:15.165Z,72.06
2019-03-30T07:27:15.174Z,71.82
2019-03-30T07:28:15.159Z,71.86
2019-03-30T07:29:15.184Z,71.6
2019-03-30T07:30:15.425Z,71.67
2019-03-30T07:31:15.181Z,71.16
2019-03-30T07:32:15.163Z,71.18
2019-03-30T07:33:17.400Z,70.86
2019-03-30T07:34:15.137Z,70.59
2019-03-30T07:35:15.152Z,70.28
2019-03-30T07:36:15.064Z,69.99
2019-03-30T07:37:15.205Z,70.28
2019-03-30T07:38:15.319Z,70.03
2019-03-30T07:39:15.187Z,70.09
2019-03-30T07:40:15.114Z,70.39
2019-03-30T07:41:15.134Z,69.88
2019-03-30T07:42:15.225Z,69.92
2019-03-30T07:43:15.209Z,69.59
2019-03-30T07:44:15.227Z,69.42
2019-03-30T07:45:15.104Z,69.04
2019-03-30T07:46:15.083Z,69.02
2019-03-30T07:47:15.173Z,69.29
2019-03-30T07:48:15.158Z,69.38
2019-03-30T07:49:15.161Z,69.27
2019-03-30T07:50:16.206Z,68.67
2019-03-30T07:51:15.199Z,69.06
2019-03-30T07:52:15.195Z,68.91
2019-03-30T07:53:27.282Z,68.49
2019-03-30T07:54:15.212Z,68.4
2019-03-30T07:55:15.141Z,68.38
2019-03-30T07:56:15.080Z,68.19
2019-03-30T07:57:17.838Z,67.93
2019-03-30T07:58:15.172Z,67.84
2019-03-30T07:59:15.093Z,67.99
2019-03-30T08:00:18.323Z,68.06
2019-03-30T08:01:15.161Z,68.18
2019-03-30T08:02:15.169Z,67.69
2019-03-30T08:03:15.400Z,68.07
2019-03-30T08:04:15.105Z,67.68
2019-03-30T08:05:15.083Z,67.89
2019-03-30T08:06:15.049Z,67.48
2019-03-30T08:07:15.147Z,67.18
2019-03-30T08:08:15.082Z,67.3
2019-03-30T08:09:15.050Z,67.43
2019-03-30T08:10:15.076Z,67.67
2019-03-30T08:11:15.157Z,67.46
2019-03-30T08:12:15.047Z,67.22
2019-03-30T08:13:15.192Z,67.4
2019-03-30T08:14:15.096Z,67.37
2019-03-30T08:15:15.068Z,67.11
2019-03-30T08:16:15.097Z,67.04
2019-03-30T08:17:15.101Z,67.37
2019-03-30T08:18:15.030Z,67.26
2019-03-30T08:19:15.045Z,66.97
2019-03-30T08:20:15.066Z,67.04
2019-03-30T08:21:15.038Z,66.99
2019-03-30T08:22:15.073Z,66.14
2019-03-30T08:23:15.016Z,66.15
2019-03-30T08:24:15.070Z,66.13
2019-03-30T08:25:15.299Z,66.78
2019-03-30T08:26:15.038Z,66.43
2019-03-30T08:27:15.041Z,65.76
2019-03-30T08:28:15.027Z,65.24
2019-03-30T08:29:15.034Z,65.81
2019-03-30T08:30:15.003Z,66.23
2019-03-30T08:31:15.048Z,65.89
2019-03-30T08:32:15.008Z,65.15
2019-03-30T08:33:15.063Z,64.01
2019-03-30T08:34:15.190Z,64.17
2019-03-30T08:35:15.045Z,64.07
2019-03-30T08:36:15.039Z,64.09
2019-03-30T08:37:15.113Z,64.63
2019-03-30T08:38:15.084Z,63.64
2019-03-30T08:39:15.083Z,64.2
2019-03-30T08:40:15.072Z,64.75
2019-03-30T08:41:15.077Z,63.64
2019-03-30T08:42:15.028Z,63.7
2019-03-30T08:43:15.082Z,63.21
2019-03-30T08:44:15.047Z,62.58
2019-03-30T08:45:15.020Z,62.62
2019-03-30T08:46:15.109Z,63.06
2019-03-30T08:47:15.021Z,63.07
2019-03-30T08:48:15.167Z,62.77
2019-03-30T08:49:15.052Z,63.29
2019-03-30T08:50:14.990Z,63.51
2019-03-30T08:51:15.028Z,63.64
2019-03-30T08:52:14.996Z,62.78
2019-03-30T08:53:14.998Z,62.62
2019-03-30T08:54:17.626Z,62.52
2019-03-30T08:55:15.024Z,62.6
2019-03-30T08:56:14.999Z,63.12
2019-03-30T08:57:14.975Z,63.29
2019-03-30T08:58:15.038Z,62.79
2019-03-30T08:59:14.959Z,62.44
2019-03-30T09:00:14.991Z,62.54
2019-03-30T09:01:15.052Z,62.44
2019-03-30T09:02:15.018Z,62.63
2019-03-30T09:03:15.050Z,62.75
2019-03-30T09:04:14.975Z,61.94
2019-03-30T09:05:15.011Z,61.99
2019-03-30T09:06:15.025Z,61.7
2019-03-30T09:07:15.058Z,61.45
2019-03-30T09:08:15.483Z,61.67
2019-03-30T09:09:15.004Z,61.32
2019-03-30T09:10:14.988Z,61.71
2019-03-30T09:11:14.991Z,61.76
2019-03-30T09:12:14.987Z,61.6
2019-03-30T09:13:15.309Z,61.34
2019-03-30T09:14:14.975Z,61.34
2019-03-30T09:15:14.973Z,61.33
2019-03-30T09:16:14.964Z,61.1
2019-03-30T09:17:15.065Z,60.77
2019-03-30T09:18:15.453Z,60.96
2019-03-30T09:19:14.967Z,61.17
2019-03-30T09:20:14.964Z,61.92
2019-03-30T09:21:14.972Z,60.79
2019-03-30T09:22:14.941Z,60.79
2019-03-30T09:23:14.978Z,60.61
2019-03-30T09:24:14.978Z,60.56
2019-03-30T09:25:15.847Z,60.23
2019-03-30T09:26:16.980Z,60.38
2019-03-30T09:27:15.064Z,60.88
2019-03-30T09:28:14.952Z,60.67
2019-03-30T09:29:15.337Z,60.79
2019-03-30T09:30:14.963Z,60.63
2019-03-30T09:31:15.004Z,59.97
2019-03-30T09:32:15.417Z,59.99
2019-03-30T09:33:15.026Z,59.69
2019-03-30T09:34:15.063Z,59.75
2019-03-30T09:35:15.043Z,59.16
2019-03-30T09:36:14.954Z,59.58
2019-03-30T09:37:14.977Z,59.33
2019-03-30T09:38:15.447Z,58.96
2019-03-30T09:39:15.979Z,59.21
2019-03-30T09:40:14.960Z,58.94
2019-03-30T09:41:14.999Z,59.24
2019-03-30T09:42:15.077Z,59.48
2019-03-30T09:43:15.029Z,59.08
2019-03-30T09:44:14.956Z,59.61
2019-03-30T09:45:14.959Z,59.21
2019-03-30T09:46:14.937Z,59.68
2019-03-30T09:47:15.038Z,58.9
2019-03-30T09:48:15.024Z,58.36
2019-03-30T09:49:14.946Z,58.08
2019-03-30T09:50:14.969Z,58.04
2019-03-30T09:51:15.029Z,58.05
2019-03-30T09:52:14.914Z,58.24
2019-03-30T09:53:14.968Z,56.97
2019-03-30T09:54:24.439Z,57.13
2019-03-30T09:55:14.925Z,57.69
2019-03-30T09:56:14.889Z,56.53
2019-03-30T09:57:14.906Z,57.86
2019-03-30T09:58:15.002Z,57.46
2019-03-30T09:59:14.874Z,57.3
2019-03-30T10:00:14.916Z,57.99
2019-03-30T10:01:14.942Z,56.85
2019-03-30T10:02:14.870Z,57.18
2019-03-30T10:03:14.892Z,57.33
2019-03-30T10:04:14.913Z,56.91
2019-03-30T10:05:14.963Z,56.57
2019-03-30T10:06:14.882Z,56.65
2019-03-30T10:07:15.058Z,56.5
2019-03-30T10:08:14.882Z,55.83
2019-03-30T10:09:15.005Z,56.24
2019-03-30T10:10:14.864Z,55.81
2019-03-30T10:11:14.971Z,55.44
2019-03-30T10:12:16.118Z,55.28
2019-03-30T10:13:14.950Z,54.56
2019-03-30T10:14:14.953Z,56.05
2019-03-30T10:15:14.954Z,54.83
2019-03-30T10:16:14.888Z,55.96
2019-03-30T10:17:15.065Z,55.48
2019-03-30T10:18:14.894Z,55.42
2019-03-30T10:19:14.874Z,54.86
2019-03-30T10:20:14.866Z,54.76
2019-03-30T10:21:14.891Z,54.12
2019-03-30T10:22:14.878Z,53.97
2019-03-30T10:23:14.891Z,53.46
2019-03-30T10:24:14.919Z,53.56
2019-03-30T10:25:14.901Z,53.27
2019-03-30T10:26:14.934Z,54.57
2019-03-30T10:27:14.913Z,53.8
2019-03-30T10:28:14.882Z,53.63
2019-03-30T10:29:14.864Z,52.59
2019-03-30T10:30:14.868Z,52.6
2019-03-30T10:31:14.863Z,52.07
2019-03-30T10:32:14.967Z,52.24
2019-03-30T10:33:14.929Z,52.55
2019-03-30T10:34:14.829Z,51.71
2019-03-30T10:35:15.785Z,51.29
2019-03-30T10:36:14.893Z,52.1
2019-03-30T10:37:14.887Z,51.19
2019-03-30T10:38:14.878Z,51.18
2019-03-30T10:39:14.841Z,51.52
2019-03-30T10:40:14.868Z,51.04
2019-03-30T10:41:14.890Z,51.29
2019-03-30T10:42:14.820Z,51.31
2019-03-30T10:43:14.855Z,52.06
2019-03-30T10:44:14.978Z,51.62
2019-03-30T10:45:14.881Z,51.83
2019-03-30T10:46:14.819Z,51.48
2019-03-30T10:47:16.632Z,51.34
2019-03-30T10:48:14.859Z,51.35
2019-03-30T10:49:14.997Z,51.29
2019-03-30T10:50:14.815Z,51.51
2019-03-30T10:51:14.850Z,51.83
2019-03-30T10:52:14.860Z,51.01
2019-03-30T10:53:14.837Z,51.43
2019-03-30T10:54:14.843Z,51.75
2019-03-30T10:55:14.867Z,50.17
2019-03-30T10:56:15.071Z,50.66
2019-03-30T10:57:14.874Z,50.89
2019-03-30T10:58:14.799Z,51.53
2019-03-30T10:59:14.792Z,51.08
2019-03-30T11:00:14.830Z,50.2
2019-03-30T11:01:14.811Z,50.59
2019-03-30T11:02:14.800Z,50.11
2019-03-30T11:03:14.833Z,50.04
2019-03-30T11:04:14.846Z,50.29
2019-03-30T11:05:14.833Z,49.96
2019-03-30T11:06:14.817Z,49.38
2019-03-30T11:07:14.810Z,50.28
2019-03-30T11:08:14.778Z,50.26
2019-03-30T11:09:14.801Z,48.93
2019-03-30T11:10:14.808Z,49.01
2019-03-30T11:11:14.864Z,49.07
2019-03-30T11:12:14.779Z,48.52
2019-03-30T11:13:14.855Z,48.62
2019-03-30T11:14:14.783Z,49.03
2019-03-30T11:15:14.787Z,49
2019-03-30T11:16:14.810Z,48.98
2019-03-30T11:17:14.805Z,47.58
2019-03-30T11:18:14.846Z,46.86
2019-03-30T11:19:14.807Z,45.94
2019-03-30T11:20:15.805Z,46.97
2019-03-30T11:21:14.861Z,45.63
2019-03-30T11:22:14.811Z,46.24
2019-03-30T11:23:14.778Z,45.89
2019-03-30T11:24:14.784Z,45.75
2019-03-30T11:25:14.772Z,46.38
2019-03-30T11:26:14.906Z,46.97
2019-03-30T11:27:14.866Z,47.43
2019-03-30T11:28:14.760Z,46.83
2019-03-30T11:29:14.810Z,46.51
2019-03-30T11:30:14.929Z,46.79
2019-03-30T11:31:14.774Z,44.15
2019-03-30T11:32:14.749Z,45.37
2019-03-30T11:33:14.835Z,45.45
2019-03-30T11:34:14.857Z,45.77
2019-03-30T11:35:14.816Z,46.68
2019-03-30T11:36:18.345Z,45.95
2019-03-30T11:37:14.778Z,46.41
2019-03-30T11:38:14.896Z,45.76
2019-03-30T11:39:14.756Z,45.79
2019-03-30T11:40:14.763Z,46.18
2019-03-30T11:41:14.825Z,44.48
2019-03-30T11:42:14.762Z,43.32
2019-03-30T11:43:14.847Z,44.29
2019-03-30T11:44:14.822Z,43.7
2019-03-30T11:45:14.772Z,44.13
2019-03-30T11:46:14.874Z,44.59
2019-03-30T11:47:14.744Z,42.98
2019-03-30T11:48:14.802Z,43.36
2019-03-30T11:49:14.821Z,43
2019-03-30T11:50:14.772Z,43.53
2019-03-30T11:51:14.804Z,42.98
2019-03-30T11:52:14.805Z,44.31
2019-03-30T11:53:14.731Z,44.4
2019-03-30T11:54:14.722Z,42.75
2019-03-30T11:55:22.720Z,41.69
2019-03-30T11:56:14.753Z,41.82
2019-03-30T11:57:14.775Z,41.85
2019-03-30T11:58:14.749Z,42.41
2019-03-30T11:59:14.715Z,41.32
2019-03-30T12:00:14.803Z,41.98
2019-03-30T12:01:14.824Z,41.35
2019-03-30T12:02:28.647Z,43.02
2019-03-30T12:03:14.789Z,41.17
2019-03-30T12:04:14.799Z,41.39
2019-03-30T12:05:14.754Z,40.71
2019-03-30T12:06:14.761Z,41.88
2019-03-30T12:07:14.741Z,41.87
2019-03-30T12:08:14.744Z,40.75
2019-03-30T12:09:14.769Z,41.8
2019-03-30T12:10:14.740Z,41.9
2019-03-30T12:11:14.735Z,40.62
2019-03-30T12:12:14.704Z,41.37
2019-03-30T12:13:14.759Z,39.76
2019-03-30T12:14:14.764Z,39.37
2019-03-30T12:15:14.789Z,40.4
2019-03-30T12:16:14.755Z,41.02
2019-03-30T12:17:14.900Z,41.49
2019-03-30T12:18:14.815Z,41.94
2019-03-30T12:19:14.763Z,40.83
2019-03-30T12:20:14.735Z,41.29
2019-03-30T12:21:14.771Z,40.91
2019-03-30T12:22:15.058Z,40.18
2019-03-30T12:23:15.023Z,39.77
2019-03-30T12:24:14.715Z,40.62
2019-03-30T12:25:14.671Z,39.01
2019-03-30T12:26:14.699Z,39.36
2019-03-30T12:27:15.850Z,38.86
2019-03-30T12:28:14.705Z,40.01
2019-03-30T12:29:14.693Z,39.26
2019-03-30T12:30:14.723Z,39.31
2019-03-30T12:31:14.841Z,39.32
2019-03-30T12:32:14.734Z,40.05
2019-03-30T12:33:14.701Z,39.09
2019-03-30T12:34:14.802Z,38.4
2019-03-30T12:35:14.707Z,39.39
2019-03-30T12:36:14.762Z,38.65
2019-03-30T12:37:14.673Z,38.28
2019-03-30T12:38:14.670Z,36.95
2019-03-30T12:39:14.678Z,37.45
2019-03-30T12:40:14.703Z,37.81
2019-03-30T12:41:14.721Z,38.28
2019-03-30T12:42:14.819Z,38.19
2019-03-30T12:43:14.696Z,37.67
2019-03-30T12:44:14.879Z,36.94
2019-03-30T12:45:15.078Z,37.25
2019-03-30T12:46:15.016Z,38.72
2019-03-30T12:47:14.701Z,36.98
2019-03-30T12:48:14.671Z,37.37
2019-03-30T12:49:14.898Z,37.63
2019-03-30T12:50:14.683Z,37.74
2019-03-30T12:51:14.698Z,38.32
2019-03-30T12:52:14.735Z,37.52
2019-03-30T12:53:14.655Z,36.89
2019-03-30T12:54:14.718Z,33.7
2019-03-30T12:55:14.750Z,35.09